Time;durP1;ratioP1;P1;durP2;ratioP2;P2;SDS_P1;SDS_P2;PMS_P1;PMS_P2;Temp;Humidity;BMP_temperature;BMP_pressure;BME280_temperature;BME280_humidity;BME280_pressure;Samples;Min_cycle;Max_cycle;Signal;HPM_P1;HPM_P2
2022/04/23 00:00:34;;;;;;;16.53;14.93;;;14.80;62.30;;;;;;5015759;28;20518;-70
2022/04/23 00:03:01;;;;;;;15.63;14.10;;;14.70;62.60;;;;;;5016066;28;20451;-71
2022/04/23 00:05:29;;;;;;;16.30;14.80;;;14.70;62.80;;;;;;5015569;28;20969;-71
2022/04/23 00:07:58;;;;;;;16.77;15.30;;;14.70;63.00;;;;;;5015880;28;20479;-71
2022/04/23 00:10:25;;;;;;;15.23;13.90;;;14.70;63.40;;;;;;5015445;28;20981;-71
2022/04/23 00:12:51;;;;;;;16.90;15.40;;;14.60;63.60;;;;;;5015586;28;20467;-70
2022/04/23 00:15:24;;;;;;;17.20;15.60;;;14.60;64.00;;;;;;5015395;28;20942;-71
2022/04/23 00:17:51;;;;;;;16.87;15.40;;;14.60;64.20;;;;;;5015619;28;20490;-71
2022/04/23 00:20:18;;;;;;;17.77;15.97;;;14.60;64.30;;;;;;5015707;28;20498;-70
2022/04/23 00:22:45;;;;;;;18.00;16.30;;;14.50;64.50;;;;;;5015616;28;20488;-71
2022/04/23 00:25:13;;;;;;;18.27;16.53;;;14.50;64.80;;;;;;5015063;28;20451;-71
2022/04/23 00:27:40;;;;;;;17.83;16.17;;;14.50;65.10;;;;;;5015284;28;20451;-71
2022/04/23 00:30:07;;;;;;;19.10;17.10;;;14.40;65.10;;;;;;5015106;28;20984;-71
2022/04/23 00:32:34;;;;;;;17.43;15.83;;;14.40;65.30;;;;;;5015125;28;20471;-70
2022/04/23 00:35:01;;;;;;;18.90;17.10;;;14.30;65.40;;;;;;5015742;28;20443;-71
2022/04/23 00:37:27;;;;;;;19.80;17.40;;;14.30;65.60;;;;;;5015011;28;20447;-70
2022/04/23 00:39:54;;;;;;;19.20;17.37;;;14.30;65.90;;;;;;5015015;28;20483;-70
2022/04/23 00:42:22;;;;;;;19.17;17.27;;;14.20;66.10;;;;;;5014929;28;20475;-70
2022/04/23 00:44:49;;;;;;;18.63;16.90;;;14.20;67.10;;;;;;5015103;28;20455;-71
2022/04/23 00:47:16;;;;;;;18.33;16.50;;;14.20;66.60;;;;;;5015392;28;20824;-70
2022/04/23 00:49:43;;;;;;;18.07;16.43;;;14.10;66.70;;;;;;5014836;28;20451;-71
2022/04/23 00:52:10;;;;;;;18.20;16.60;;;14.00;66.70;;;;;;5014646;28;20499;-71
2022/04/23 00:54:38;;;;;;;19.97;18.17;;;14.00;66.90;;;;;;5014820;28;20462;-70
2022/04/23 00:57:07;;;;;;;19.27;17.43;;;14.00;67.20;;;;;;5014598;28;20930;-70
2022/04/23 00:59:35;;;;;;;19.07;17.07;;;13.90;67.40;;;;;;5014548;28;20590;-71
2022/04/23 01:02:03;;;;;;;17.43;15.73;;;13.90;67.60;;;;;;5014771;28;20474;-75
2022/04/23 01:04:30;;;;;;;20.17;18.27;;;13.80;67.70;;;;;;5014624;28;20443;-70
2022/04/23 01:06:59;;;;;;;19.00;17.27;;;13.70;67.80;;;;;;5014569;28;20490;-70
2022/04/23 01:09:26;;;;;;;20.93;18.73;;;13.70;68.20;;;;;;5014245;28;20451;-71
2022/04/23 01:11:54;;;;;;;24.07;17.60;;;13.60;68.30;;;;;;5014573;28;20874;-70
2022/04/23 01:14:21;;;;;;;18.77;16.87;;;13.60;68.40;;;;;;5014608;28;20455;-70
2022/04/23 01:16:49;;;;;;;19.20;17.40;;;13.60;68.80;;;;;;5014130;28;20812;-71
2022/04/23 01:19:15;;;;;;;19.33;17.57;;;13.50;68.90;;;;;;5014369;28;20486;-70
2022/04/23 01:21:44;;;;;;;18.70;16.97;;;13.40;69.10;;;;;;5014251;28;20474;-71
2022/04/23 01:24:11;;;;;;;18.57;16.80;;;13.40;69.10;;;;;;5014319;28;20458;-71
2022/04/23 01:26:38;;;;;;;19.30;17.50;;;13.30;69.20;;;;;;5013938;28;20455;-71
2022/04/23 01:29:05;;;;;;;17.63;16.03;;;13.30;69.40;;;;;;5014149;28;20456;-70
2022/04/23 01:31:33;;;;;;;17.90;16.30;;;13.20;69.30;;;;;;5014107;28;20487;-70
2022/04/23 01:34:00;;;;;;;20.03;17.77;;;13.10;68.90;;;;;;5014884;28;20443;-70
2022/04/23 01:36:27;;;;;;;17.40;15.63;;;13.00;68.70;;;;;;5013949;28;20494;-70
2022/04/23 01:38:55;;;;;;;19.93;17.97;;;12.90;68.70;;;;;;5014157;28;20443;-71
2022/04/23 01:41:22;;;;;;;18.83;17.03;;;12.80;68.70;;;;;;5014047;28;20479;-70
2022/04/23 01:43:49;;;;;;;17.60;15.90;;;12.80;68.70;;;;;;5013693;28;20550;-70
2022/04/23 01:46:16;;;;;;;18.10;16.40;;;12.80;69.00;;;;;;5013574;28;20969;-70
2022/04/23 01:48:43;;;;;;;18.27;16.47;;;12.70;69.30;;;;;;5014177;28;20452;-70
2022/04/23 01:51:10;;;;;;;18.70;16.90;;;12.70;69.30;;;;;;5013686;28;20846;-71
2022/04/23 01:53:37;;;;;;;17.80;15.53;;;12.70;69.40;;;;;;5013594;28;20455;-71
2022/04/23 01:56:05;;;;;;;17.33;15.83;;;12.70;69.80;;;;;;5014126;28;20451;-70
2022/04/23 01:58:32;;;;;;;18.60;16.70;;;12.70;70.00;;;;;;5013957;28;20447;-71
2022/04/23 02:00:59;;;;;;;17.43;15.80;;;12.70;70.20;;;;;;5013544;28;20549;-71
2022/04/23 02:03:28;;;;;;;19.27;17.43;;;12.70;70.80;;;;;;5013851;28;20578;-70
2022/04/23 02:05:55;;;;;;;20.43;18.20;;;12.70;71.20;;;;;;5013777;28;20598;-70
2022/04/23 02:08:22;;;;;;;19.60;17.80;;;12.70;71.70;;;;;;5013678;28;20459;-71
2022/04/23 02:10:49;;;;;;;19.07;17.17;;;12.70;72.00;;;;;;5013348;28;21009;-71
2022/04/23 02:13:17;;;;;;;21.07;19.17;;;12.70;72.30;;;;;;5013776;28;20463;-70
2022/04/23 02:15:44;;;;;;;19.27;17.57;;;12.70;72.60;;;;;;5013554;28;20431;-71
2022/04/23 02:18:11;;;;;;;19.27;17.37;;;12.70;72.70;;;;;;5013650;28;20450;-71
2022/04/23 02:20:38;;;;;;;19.60;17.77;;;12.70;72.80;;;;;;5013291;28;20493;-70
2022/04/23 02:23:05;;;;;;;20.50;18.70;;;12.60;72.90;;;;;;5013570;28;20798;-70
2022/04/23 02:25:34;;;;;;;20.50;18.50;;;12.60;73.10;;;;;;5013523;28;20459;-71
2022/04/23 02:28:02;;;;;;;20.03;18.10;;;12.60;73.40;;;;;;5013489;28;20823;-70
2022/04/23 02:30:31;;;;;;;19.63;17.60;;;12.60;73.50;;;;;;5013423;28;20455;-71
2022/04/23 02:32:58;;;;;;;19.37;17.37;;;12.60;73.60;;;;;;5013429;28;20468;-70
2022/04/23 02:35:25;;;;;;;20.27;18.17;;;12.60;73.70;;;;;;5013429;28;20451;-70
2022/04/23 02:37:55;;;;;;;20.53;18.60;;;12.60;73.80;;;;;;5013474;28;20455;-70
2022/04/23 02:40:21;;;;;;;19.90;17.93;;;12.60;73.90;;;;;;5013382;28;20485;-71
2022/04/23 02:42:50;;;;;;;21.57;19.27;;;12.60;74.10;;;;;;5013496;28;20471;-71
2022/04/23 02:45:20;;;;;;;20.00;18.23;;;12.60;74.30;;;;;;5013333;28;20463;-70
2022/04/23 02:47:49;;;;;;;19.87;17.93;;;12.60;74.50;;;;;;5014308;28;20478;-71
2022/04/23 02:50:17;;;;;;;19.10;17.33;;;12.60;75.30;;;;;;5017124;28;20509;-71
2022/04/23 02:52:45;;;;;;;22.13;20.03;;;12.60;74.70;;;;;;5016934;28;20534;-70
2022/04/23 02:55:12;;;;;;;22.03;19.80;;;12.60;74.80;;;;;;5017180;28;20454;-70
2022/04/23 02:57:41;;;;;;;22.03;19.93;;;12.60;75.00;;;;;;5017011;28;20454;-70
2022/04/23 03:00:10;;;;;;;22.37;20.40;;;12.50;75.00;;;;;;5016860;28;20874;-70
2022/04/23 03:02:37;;;;;;;21.07;19.17;;;12.50;75.30;;;;;;5016992;28;20471;-70
2022/04/23 03:05:08;;;;;;;21.13;19.03;;;12.50;75.30;;;;;;5016992;28;20451;-70
2022/04/23 03:07:35;;;;;;;18.83;17.00;;;12.50;75.40;;;;;;5017714;28;20439;-70
2022/04/23 03:10:02;;;;;;;21.10;19.00;;;12.50;75.70;;;;;;5016934;28;20451;-70
2022/04/23 03:12:29;;;;;;;21.67;19.57;;;12.50;75.80;;;;;;5016383;28;20482;-71
2022/04/23 03:14:56;;;;;;;20.70;18.70;;;12.50;76.00;;;;;;5016590;28;20459;-70
2022/04/23 03:17:23;;;;;;;22.23;19.93;;;12.40;76.40;;;;;;5016820;28;20478;-70
2022/04/23 03:19:50;;;;;;;22.80;20.63;;;12.40;76.80;;;;;;5016678;28;20514;-70
2022/04/23 03:22:20;;;;;;;19.70;17.90;;;12.40;76.90;;;;;;5016599;28;20841;-70
2022/04/23 03:24:47;;;;;;;22.23;20.07;;;12.40;77.10;;;;;;5016783;28;20478;-70
2022/04/23 03:27:14;;;;;;;21.53;19.53;;;12.40;78.10;;;;;;5016520;28;20447;-70
2022/04/23 03:29:41;;;;;;;19.83;18.03;;;12.30;77.20;;;;;;5016610;28;20455;-71
2022/04/23 03:32:10;;;;;;;20.47;18.23;;;12.30;77.10;;;;;;5016374;28;20474;-70
2022/04/23 03:34:36;;;;;;;21.53;19.50;;;12.30;77.20;;;;;;5016273;28;20462;-70
2022/04/23 03:37:04;;;;;;;20.80;18.80;;;12.30;77.40;;;;;;5016169;28;20459;-70
2022/04/23 03:39:33;;;;;;;19.33;17.33;;;12.30;77.60;;;;;;5016166;28;20526;-70
2022/04/23 03:42:01;;;;;;;21.77;19.67;;;12.30;77.90;;;;;;5015779;28;20998;-70
2022/04/23 03:44:28;;;;;;;19.27;17.47;;;12.30;78.20;;;;;;5016104;28;20451;-70
2022/04/23 03:46:56;;;;;;;20.67;18.77;;;12.30;78.20;;;;;;5016366;28;20460;-70
2022/04/23 03:49:23;;;;;;;21.67;19.63;;;12.20;78.20;;;;;;5016017;28;20455;-70
2022/04/23 03:51:49;;;;;;;21.00;19.10;;;12.20;78.30;;;;;;5015784;28;20491;-70
2022/04/23 03:54:17;;;;;;;20.43;18.50;;;12.20;78.50;;;;;;5016094;28;20586;-70
2022/04/23 03:56:45;;;;;;;20.80;18.90;;;12.20;78.60;;;;;;5015977;28;20459;-70
2022/04/23 03:59:12;;;;;;;22.50;20.40;;;12.20;78.60;;;;;;5016583;28;20467;-70
2022/04/23 04:01:39;;;;;;;21.10;19.17;;;12.10;78.60;;;;;;5015756;28;20501;-70
2022/04/23 04:04:05;;;;;;;19.37;17.77;;;12.10;78.70;;;;;;5015673;28;21000;-70
2022/04/23 04:06:33;;;;;;;19.77;17.73;;;12.10;78.90;;;;;;5015653;28;20462;-70
2022/04/23 04:09:00;;;;;;;20.03;18.13;;;12.10;78.90;;;;;;5015478;28;20829;-70
2022/04/23 04:12:00;;;;;;;17.43;15.83;;;12.10;79.00;;;;;;5015710;28;20522;-70
2022/04/23 04:14:15;;;;;;;16.17;14.83;;;12.00;78.70;;;;;;5015190;28;20505;-70
2022/04/23 04:16:41;;;;;;;17.20;15.47;;;12.00;79.30;;;;;;5015441;28;20517;-70
2022/04/23 04:19:08;;;;;;;20.40;18.60;;;12.00;79.40;;;;;;5015475;28;20455;-70
2022/04/23 04:21:35;;;;;;;19.70;18.00;;;12.00;80.20;;;;;;5015415;28;20494;-69
2022/04/23 04:24:02;;;;;;;18.37;16.57;;;12.00;80.20;;;;;;5015650;28;20454;-70
2022/04/23 04:26:28;;;;;;;17.33;15.70;;;12.00;80.50;;;;;;5015661;28;20451;-70
2022/04/23 04:28:56;;;;;;;19.40;17.60;;;12.00;80.30;;;;;;5015302;28;20822;-69
2022/04/23 04:34:09;;;;;;;18.23;16.50;;;12.10;81.00;;;;;;5014960;28;20803;-70
2022/04/23 04:36:36;;;;;;;19.33;17.13;;;12.10;81.20;;;;;;5015268;28;20459;-70
2022/04/23 04:39:03;;;;;;;18.87;17.07;;;12.10;81.00;;;;;;5014898;28;20965;-70
2022/04/23 04:41:31;;;;;;;17.30;15.60;;;12.10;81.00;;;;;;5014941;28;20494;-70
2022/04/23 04:43:58;;;;;;;19.07;17.27;;;12.10;81.10;;;;;;5014989;28;20505;-70
2022/04/23 04:46:26;;;;;;;18.37;16.70;;;12.10;81.00;;;;;;5014630;28;20451;-69
2022/04/23 04:48:53;;;;;;;16.60;14.67;;;12.20;81.40;;;;;;5014910;28;20443;-70
2022/04/23 04:51:20;;;;;;;17.67;15.90;;;12.20;81.40;;;;;;5014804;28;20464;-70
2022/04/23 04:53:46;;;;;;;20.30;18.13;;;12.20;81.40;;;;;;5014543;28;20435;-70
2022/04/23 04:56:13;;;;;;;17.07;15.37;;;12.20;81.40;;;;;;5015028;28;20443;-70
2022/04/23 04:58:43;;;;;;;19.37;17.57;;;12.20;81.30;;;;;;5014496;28;20805;-70
2022/04/23 05:01:10;;;;;;;19.87;17.87;;;12.20;81.20;;;;;;5014530;28;20488;-70
2022/04/23 05:03:39;;;;;;;18.37;16.57;;;12.20;81.30;;;;;;5014438;28;20890;-70
2022/04/23 05:06:06;;;;;;;16.80;15.20;;;12.20;81.50;;;;;;5014692;28;20459;-69
2022/04/23 05:08:34;;;;;;;17.57;15.87;;;12.30;81.50;;;;;;5014479;28;20455;-70
2022/04/23 05:11:00;;;;;;;20.63;18.57;;;12.30;81.50;;;;;;5013702;28;20927;-69
2022/04/23 05:13:27;;;;;;;20.47;18.30;;;12.30;81.40;;;;;;5014687;28;20452;-70
2022/04/23 05:15:54;;;;;;;18.20;16.40;;;12.30;81.70;;;;;;5014538;28;20463;-70
2022/04/23 05:18:21;;;;;;;18.73;16.80;;;12.30;81.90;;;;;;5014345;28;20451;-70
2022/04/23 05:20:50;;;;;;;16.03;14.53;;;12.30;82.30;;;;;;5014318;28;20487;-70
2022/04/23 05:23:17;;;;;;;17.50;15.80;;;12.30;81.90;;;;;;5014315;28;20447;-70
2022/04/23 05:25:43;;;;;;;15.90;14.30;;;12.30;81.40;;;;;;5014284;28;20451;-69
2022/04/23 05:28:10;;;;;;;19.70;17.57;;;12.30;82.00;;;;;;5014310;28;20466;-69
2022/04/23 05:30:38;;;;;;;18.17;16.50;;;12.40;82.10;;;;;;5013977;28;20950;-70
2022/04/23 05:33:05;;;;;;;21.83;19.70;;;12.40;82.30;;;;;;5014295;28;20479;-70
2022/04/23 05:35:32;;;;;;;17.30;15.70;;;12.50;82.60;;;;;;5014899;28;20961;-70
2022/04/23 05:38:01;;;;;;;19.60;17.60;;;12.50;82.60;;;;;;5014098;28;20451;-69
2022/04/23 05:40:28;;;;;;;17.47;15.77;;;12.50;82.70;;;;;;5013952;28;20491;-70
2022/04/23 05:42:58;;;;;;;20.80;18.70;;;12.50;82.30;;;;;;5013790;28;20982;-70
2022/04/23 05:45:26;;;;;;;20.73;18.73;;;12.60;83.00;;;;;;5013895;28;20444;-70
2022/04/23 05:47:53;;;;;;;21.20;19.20;;;12.70;83.60;;;;;;5013934;28;20451;-69
2022/04/23 05:50:20;;;;;;;18.70;16.87;;;12.70;83.60;;;;;;5014086;28;20452;-69
2022/04/23 05:52:47;;;;;;;23.73;21.23;;;12.80;83.20;;;;;;5013793;28;20475;-69
2022/04/23 05:55:16;;;;;;;17.00;15.47;;;12.80;83.30;;;;;;5013886;28;20513;-69
2022/04/23 05:57:43;;;;;;;21.13;19.13;;;12.90;83.40;;;;;;5014707;28;20462;-69
2022/04/23 06:00:12;;;;;;;22.20;20.10;;;12.90;83.80;;;;;;5013949;28;20443;-70
2022/04/23 06:02:39;;;;;;;18.53;16.73;;;13.00;84.40;;;;;;5013665;28;20491;-70
2022/04/23 06:05:07;;;;;;;19.67;17.67;;;13.00;83.90;;;;;;5013913;28;20456;-70
2022/04/23 06:07:34;;;;;;;18.80;17.00;;;13.00;83.90;;;;;;5013360;28;20455;-70
2022/04/23 06:10:01;;;;;;;20.97;19.03;;;13.10;83.10;;;;;;5013876;28;20461;-70
2022/04/23 06:12:31;;;;;;;18.93;17.07;;;13.20;83.10;;;;;;5013707;28;20517;-70
2022/04/23 06:14:58;;;;;;;20.93;18.97;;;13.30;83.40;;;;;;5013752;28;20498;-70
2022/04/23 06:17:27;;;;;;;18.20;16.27;;;13.40;83.10;;;;;;5013829;28;20455;-70
2022/04/23 06:19:55;;;;;;;23.07;20.83;;;13.50;83.00;;;;;;5013711;28;20490;-69
2022/04/23 06:22:23;;;;;;;21.53;19.33;;;13.50;82.80;;;;;;5013570;28;20582;-69
2022/04/23 06:24:50;;;;;;;19.60;17.60;;;13.60;83.60;;;;;;5017874;28;20874;-69
2022/04/23 06:27:17;;;;;;;22.43;18.70;;;13.70;83.80;;;;;;5017699;28;20447;-69
2022/04/23 06:29:45;;;;;;;23.67;21.27;;;13.80;83.50;;;;;;5017300;28;20793;-69
2022/04/23 06:32:12;;;;;;;22.17;19.87;;;13.90;82.80;;;;;;5017114;28;20840;-69
2022/04/23 06:34:40;;;;;;;19.47;17.50;;;14.00;82.60;;;;;;5017546;28;20460;-68
2022/04/23 06:37:06;;;;;;;21.50;18.00;;;14.10;81.60;;;;;;5017216;28;20448;-70
2022/04/23 06:39:33;;;;;;;21.57;19.57;;;14.20;81.30;;;;;;5018002;28;20447;-69
2022/04/23 06:42:00;;;;;;;16.20;14.60;;;14.30;80.40;;;;;;5017704;28;20553;-71
2022/04/23 06:44:27;;;;;;;18.10;16.40;;;14.40;79.90;;;;;;5017452;28;20466;-70
2022/04/23 06:46:55;;;;;;;17.10;15.57;;;14.50;78.60;;;;;;5017489;28;20478;-70
2022/04/23 06:49:24;;;;;;;19.90;17.90;;;14.60;78.60;;;;;;5017227;28;20455;-70
2022/04/23 06:51:51;;;;;;;19.57;17.77;;;14.70;78.10;;;;;;5016977;28;20517;-70
2022/04/23 06:54:17;;;;;;;18.70;17.00;;;14.80;78.30;;;;;;5017141;28;20451;-70
2022/04/23 06:56:44;;;;;;;16.57;15.07;;;14.90;77.20;;;;;;5017041;28;20456;-70
2022/04/23 06:59:12;;;;;;;18.90;17.10;;;15.00;76.50;;;;;;5017281;28;20447;-70
2022/04/23 07:01:40;;;;;;;18.70;17.00;;;15.10;75.70;;;;;;5016625;28;20526;-70
2022/04/23 07:04:09;;;;;;;16.50;15.07;;;15.20;74.70;;;;;;5017105;28;20485;-70
2022/04/23 07:06:36;;;;;;;18.90;17.10;;;15.40;73.90;;;;;;5016881;28;20828;-70
2022/04/23 07:09:04;;;;;;;18.30;16.67;;;15.50;73.40;;;;;;5016776;28;20462;-70
2022/04/23 07:11:30;;;;;;;17.47;15.97;;;15.60;72.70;;;;;;5016424;28;21017;-70
2022/04/23 07:13:57;;;;;;;16.53;15.10;;;15.70;72.50;;;;;;5016832;28;20455;-70
2022/04/23 07:16:24;;;;;;;16.63;15.13;;;15.80;71.80;;;;;;5016642;28;20451;-69
2022/04/23 07:18:52;;;;;;;15.70;14.40;;;16.00;71.80;;;;;;5016377;28;20958;-70
2022/04/23 07:21:21;;;;;;;16.70;15.10;;;16.10;70.00;;;;;;5016327;28;20493;-70
2022/04/23 07:26:41;;;;;;;16.00;14.57;;;16.40;68.90;;;;;;4992452;28;20442;-70
2022/04/23 07:29:10;;;;;;;15.67;14.27;;;16.50;68.20;;;;;;5016392;28;21000;-71
2022/04/23 07:31:38;;;;;;;15.87;14.47;;;16.70;67.50;;;;;;5016455;28;20466;-71
2022/04/23 07:39:37;;;;;;;16.90;15.40;;;17.10;64.30;;;;;;5016485;28;20416;-70
2022/04/23 07:42:05;;;;;;;16.30;14.83;;;17.30;63.70;;;;;;5016181;28;20491;-70
2022/04/23 07:44:32;;;;;;;15.37;14.07;;;17.40;63.20;;;;;;5016308;28;20791;-70
2022/04/23 07:46:59;;;;;;;13.10;12.00;;;17.60;62.80;;;;;;5016312;28;20451;-70
2022/04/23 07:49:26;;;;;;;18.00;16.20;;;17.70;61.80;;;;;;5016280;28;20447;-70
2022/04/23 07:51:54;;;;;;;17.63;16.00;;;17.90;61.50;;;;;;5015973;28;20862;-70
2022/04/23 07:54:21;;;;;;;15.53;14.20;;;18.00;61.60;;;;;;5016147;28;20451;-69
2022/04/23 07:56:48;;;;;;;15.67;14.27;;;18.10;60.30;;;;;;5017101;28;20455;-69
2022/04/23 07:59:15;;;;;;;17.63;13.53;;;18.30;59.60;;;;;;5016186;28;20455;-70
2022/04/23 08:01:41;;;;;;;14.80;13.50;;;18.50;59.50;;;;;;5015893;28;20487;-70
2022/04/23 08:04:08;;;;;;;14.53;13.13;;;18.70;59.20;;;;;;5015498;28;20455;-70
2022/04/23 08:06:35;;;;;;;14.93;13.53;;;18.90;58.50;;;;;;5015810;28;20459;-70
2022/04/23 08:09:04;;;;;;;13.20;12.00;;;19.10;58.20;;;;;;5015683;28;20477;-70
2022/04/23 08:11:31;;;;;;;14.20;12.87;;;19.20;56.80;;;;;;5015614;28;20507;-70
2022/04/23 08:13:58;;;;;;;13.47;12.20;;;19.40;55.90;;;;;;5015093;28;20487;-70
2022/04/23 08:16:28;;;;;;;14.00;12.80;;;19.50;55.10;;;;;;5015646;28;20483;-70
2022/04/23 08:18:56;;;;;;;12.50;11.40;;;19.70;54.70;;;;;;5015911;28;20456;-70
2022/04/23 08:21:23;;;;;;;11.77;10.77;;;19.80;54.20;;;;;;5015075;28;20860;-70
2022/04/23 08:23:50;;;;;;;13.70;12.60;;;20.00;53.90;;;;;;5015589;28;20534;-70
2022/04/23 08:26:18;;;;;;;13.80;12.70;;;20.10;53.50;;;;;;5015586;28;20462;-73
2022/04/23 08:31:30;;;;;;;11.93;10.83;;;20.50;52.90;;;;;;5015788;28;20438;-70
2022/04/23 08:34:00;;;;;;;12.30;11.30;;;20.60;52.50;;;;;;5015440;28;20456;-70
2022/04/23 08:36:35;;;;;;;12.30;10.67;;;20.80;52.40;;;;;;5015318;28;20440;-70
2022/04/23 08:39:02;;;;;;;11.80;10.80;;;21.00;52.10;;;;;;5015400;28;20439;-71
2022/04/23 08:41:31;;;;;;;10.20;9.30;;;21.20;51.30;;;;;;5014984;28;21036;-70
2022/04/23 08:44:02;;;;;;;12.23;11.23;;;21.40;49.70;;;;;;5015227;28;20502;-70
2022/04/23 08:46:29;;;;;;;12.00;11.00;;;21.50;49.40;;;;;;5014260;28;20440;-70
2022/04/23 08:49:07;;;;;;;11.50;10.57;;;21.70;49.10;;;;;;5015304;28;20447;-70
2022/04/23 08:51:35;;;;;;;11.63;10.20;;;21.90;48.70;;;;;;5015162;28;20551;-71
2022/04/23 08:54:07;;;;;;;10.60;9.77;;;22.00;47.90;;;;;;5014892;28;20455;-70
2022/04/23 08:56:36;;;;;;;13.20;11.90;;;22.20;47.40;;;;;;5014686;28;20435;-70
2022/04/23 08:59:03;;;;;;;12.37;11.23;;;22.20;45.50;;;;;;5015094;28;20451;-70
2022/04/23 09:01:32;;;;;;;12.00;11.00;;;22.20;45.50;;;;;;5014677;28;20494;-71
2022/04/23 09:04:01;;;;;;;11.33;10.30;;;22.20;45.40;;;;;;5015021;28;20482;-70
2022/04/23 09:06:35;;;;;;;12.10;11.10;;;22.30;45.60;;;;;;5014612;28;20479;-70
2022/04/23 09:09:13;;;;;;;11.67;10.73;;;22.50;45.40;;;;;;5014466;28;20436;-70
2022/04/23 09:11:43;;;;;;;10.67;9.77;;;22.60;44.70;;;;;;5014493;28;20990;-70
2022/04/23 09:14:22;;;;;;;10.23;9.43;;;22.70;44.80;;;;;;5014588;28;20442;-70
2022/04/23 09:25:10;;;;;;;10.00;9.20;;;23.60;43.70;;;;;;5014644;28;20422;-70
2022/04/23 09:27:41;;;;;;;10.30;9.50;;;23.80;43.30;;;;;;5014371;28;20459;-70
2022/04/23 09:30:09;;;;;;;10.17;9.07;;;24.10;43.50;;;;;;5014661;28;20441;-70
2022/04/23 09:32:37;;;;;;;9.93;8.93;;;24.30;42.80;;;;;;5014210;28;20502;-70
2022/04/23 09:35:11;;;;;;;9.40;8.60;;;24.60;41.90;;;;;;5014423;28;20447;-70
2022/04/23 09:40:27;;;;;;;10.37;9.30;;;24.90;39.50;;;;;;5014061;28;20486;-70
2022/04/23 09:43:01;;;;;;;9.80;8.20;;;24.90;38.90;;;;;;5014826;28;20471;-71
2022/04/23 09:45:29;;;;;;;8.90;8.20;;;25.00;39.60;;;;;;5014184;28;20941;-70
2022/04/23 09:47:57;;;;;;;9.10;8.40;;;25.20;39.80;;;;;;5014179;28;20463;-70
2022/04/23 09:50:25;;;;;;;8.63;8.03;;;25.40;39.60;;;;;;5013916;28;20958;-70
2022/04/23 09:52:53;;;;;;;9.57;8.87;;;25.70;39.10;;;;;;5013683;28;20639;-70
2022/04/23 09:55:21;;;;;;;8.63;7.93;;;26.00;38.50;;;;;;5014552;28;20502;-70
2022/04/23 09:57:49;;;;;;;9.50;7.33;;;26.20;37.40;;;;;;5013859;28;20459;-70
2022/04/23 10:00:18;;;;;;;9.07;8.27;;;26.50;37.00;;;;;;5014006;28;20788;-70
2022/04/23 10:02:47;;;;;;;9.50;8.70;;;26.90;36.90;;;;;;5013779;28;20527;-70
2022/04/23 10:05:19;;;;;;;9.63;8.83;;;27.10;36.50;;;;;;5013632;28;20490;-70
2022/04/23 10:07:50;;;;;;;13.00;9.17;;;27.50;36.40;;;;;;5014019;28;20459;-70
2022/04/23 10:10:18;;;;;;;12.47;8.47;;;27.80;35.00;;;;;;5013926;28;20435;-70
2022/04/23 10:12:46;;;;;;;9.60;8.80;;;28.20;34.10;;;;;;5013749;28;20463;-68
2022/04/23 10:15:14;;;;;;;9.47;8.67;;;28.60;33.90;;;;;;5013625;28;20455;-69
2022/04/23 10:17:44;;;;;;;8.50;7.90;;;29.00;33.30;;;;;;5013715;28;20494;-69
2022/04/23 10:20:13;;;;;;;10.30;9.40;;;29.40;32.60;;;;;;5013308;28;20455;-69
2022/04/23 10:22:54;;;;;;;10.97;9.90;;;29.70;31.20;;;;;;5013433;28;20497;-69
2022/04/23 10:25:29;;;;;;;9.43;8.67;;;30.10;30.00;;;;;;5013420;28;20443;-69
2022/04/23 10:27:59;;;;;;;8.40;7.80;;;30.30;29.80;;;;;;5013480;28;20448;-70
2022/04/23 10:30:31;;;;;;;9.17;8.40;;;30.30;29.50;;;;;;5013240;28;20509;-70
2022/04/23 10:33:29;;;;;;;8.97;8.27;;;30.40;29.70;;;;;;5013562;28;20802;-70
2022/04/23 10:36:08;;;;;;;10.30;9.50;;;30.60;29.30;;;;;;5013230;28;20793;-70
2022/04/23 10:38:38;;;;;;;9.30;8.50;;;30.80;28.90;;;;;;5013476;28;20445;-70
2022/04/23 10:41:06;;;;;;;10.43;9.40;;;31.20;28.60;;;;;;5013576;28;20911;-69
2022/04/23 10:43:33;;;;;;;9.30;8.40;;;31.60;28.00;;;;;;5013359;28;20527;-69
2022/04/23 10:46:00;;;;;;;10.60;9.20;;;32.00;27.10;;;;;;5013547;28;20450;-70
2022/04/23 10:48:32;;;;;;;9.70;8.83;;;32.30;26.40;;;;;;5013548;28;20490;-70
2022/04/23 10:51:00;;;;;;;9.53;8.73;;;32.60;26.10;;;;;;5013350;28;20505;-70
2022/04/23 10:53:55;;;;;;;10.20;9.27;;;33.00;25.60;;;;;;5013008;28;20867;-70
2022/04/23 10:56:23;;;;;;;9.83;9.13;;;33.40;24.80;;;;;;5013404;28;20454;-70
2022/04/23 10:58:51;;;;;;;10.73;9.63;;;33.80;24.10;;;;;;5013003;28;20458;-70
2022/04/23 11:01:22;;;;;;;9.57;8.90;;;34.00;24.00;;;;;;5012755;28;20475;-70
2022/04/23 11:04:09;;;;;;;9.67;8.83;;;34.10;23.90;;;;;;5013187;28;20486;-69
2022/04/23 11:12:33;;;;;;;8.97;8.37;;;35.00;23.10;;;;;;5016568;28;20860;-70
2022/04/23 11:15:01;;;;;;;8.70;8.00;;;35.30;22.30;;;;;;5016730;28;20439;-69
2022/04/23 11:17:55;;;;;;;8.50;7.90;;;35.40;22.30;;;;;;5016532;28;20454;-69
2022/04/23 11:20:39;;;;;;;8.30;7.70;;;35.70;22.80;;;;;;5016437;28;21013;-69
2022/04/23 11:23:07;;;;;;;7.73;7.23;;;36.00;22.40;;;;;;5016402;28;20513;-70
2022/04/23 11:25:34;;;;;;;8.63;7.90;;;36.40;21.80;;;;;;5016630;28;20439;-70
2022/04/23 11:28:21;;;;;;;9.13;8.20;;;36.80;22.10;;;;;;5016450;28;20214;-70
2022/04/23 11:30:48;;;;;;;8.40;7.80;;;37.30;20.80;;;;;;5015887;28;20290;-70
2022/04/23 11:33:16;;;;;;;9.55;8.77;;;37.50;20.30;;;;;;5016883;28;20188;-70
2022/04/23 11:35:44;;;;;;;10.20;9.27;;;37.70;20.10;;;;;;5016311;28;20203;-69
2022/04/23 11:38:22;;;;;;;8.60;7.90;;;37.70;19.80;;;;;;5016153;28;20587;-70
2022/04/23 11:40:48;;;;;;;9.50;8.80;;;37.30;20.40;;;;;;5016157;28;20255;-69
2022/04/23 11:43:32;;;;;;;8.10;7.40;;;37.30;20.50;;;;;;5016313;28;20585;-69
2022/04/23 11:46:07;;;;;;;8.90;8.10;;;37.60;20.10;;;;;;5016089;28;20191;-69
2022/04/23 11:48:41;;;;;;;7.55;6.85;;;38.00;19.80;;;;;;5015657;28;20218;-70
2022/04/23 11:51:12;;;;;;;7.38;6.88;;;38.40;19.60;;;;;;5015610;28;20733;-69
2022/04/23 11:53:55;;;;;;;7.90;7.20;;;39.00;19.40;;;;;;5015969;28;20184;-69
2022/04/23 11:56:25;;;;;;;9.23;8.57;;;39.30;18.40;;;;;;5016021;28;20279;-69
2022/04/23 11:58:54;;;;;;;8.18;7.57;;;39.60;17.20;;;;;;5016150;28;20196;-70
2022/04/23 12:01:22;;;;;;;7.95;7.43;;;39.60;17.80;;;;;;5015921;28;20278;-70
2022/04/23 12:03:50;;;;;;;7.00;6.43;;;40.00;18.20;;;;;;5016017;28;20255;-70
2022/04/23 12:06:18;;;;;;;8.05;7.47;;;40.40;17.60;;;;;;5015650;28;20207;-70
2022/04/23 12:08:44;;;;;;;8.05;7.45;;;40.70;17.50;;;;;;5015795;28;20219;-70
2022/04/23 12:11:23;;;;;;;7.50;6.82;;;41.00;16.90;;;;;;5015573;28;20231;-70
2022/04/23 12:13:50;;;;;;;9.10;8.50;;;41.10;16.80;;;;;;5015731;28;20579;-70
2022/04/23 12:16:35;;;;;;;8.30;7.47;;;41.10;15.80;;;;;;5015575;28;20211;-70
2022/04/23 12:19:03;;;;;;;7.30;6.80;;;40.50;15.50;;;;;;5015544;28;20380;-70
2022/04/23 12:21:32;;;;;;;8.55;7.95;;;40.40;16.80;;;;;;5015135;28;20604;-70
2022/04/23 12:23:59;;;;;;;8.15;7.55;;;40.50;17.30;;;;;;5015353;28;20219;-69
2022/04/23 12:26:35;;;;;;;7.30;6.63;;;40.40;15.80;;;;;;5015629;28;20204;-69
2022/04/23 12:40:46;;;;;;;8.35;7.75;;;40.50;16.90;;;;;;5014835;28;20279;-69
2022/04/23 12:43:28;;;;;;;8.35;7.65;;;39.60;17.80;;;;;;5015038;28;20208;-69
2022/04/23 12:46:10;;;;;;;8.57;7.90;;;38.80;17.60;;;;;;5014961;28;20199;-69
2022/04/23 12:48:56;;;;;;;9.27;8.07;;;38.50;18.30;;;;;;5012656;28;20279;-69
2022/04/23 12:51:23;;;;;;;8.15;7.65;;;38.30;18.40;;;;;;5014531;28;20251;-70
2022/04/23 12:53:52;;;;;;;8.75;8.02;;;38.40;18.40;;;;;;5014918;28;20207;-69
2022/04/23 12:56:19;;;;;;;8.82;8.13;;;38.20;18.80;;;;;;5014837;28;20192;-69
2022/04/23 12:58:46;;;;;;;9.70;8.77;;;37.60;18.90;;;;;;5014824;28;20219;-69
2022/04/23 13:01:13;;;;;;;9.40;8.73;;;37.00;19.20;;;;;;5014705;28;20227;-69
2022/04/23 13:03:44;;;;;;;10.30;9.40;;;36.50;19.90;;;;;;5014369;28;20706;-69
2022/04/23 13:08:57;;;;;;;9.57;8.77;;;36.10;20.60;;;;;;5014701;28;20410;-69
2022/04/23 13:11:28;;;;;;;8.27;7.57;;;36.60;21.10;;;;;;5014368;28;20765;-69
2022/04/23 13:13:57;;;;;;;8.30;7.70;;;37.10;19.70;;;;;;5014737;28;20458;-69
2022/04/23 13:16:24;;;;;;;8.20;7.60;;;36.90;19.70;;;;;;5014739;28;20188;-69
2022/04/23 13:18:55;;;;;;;8.23;7.60;;;36.70;19.70;;;;;;5014483;28;20185;-69
2022/04/23 13:21:23;;;;;;;9.33;7.03;;;36.40;20.10;;;;;;5013934;28;20226;-69
2022/04/23 13:23:52;;;;;;;7.23;6.63;;;36.60;20.00;;;;;;5014715;28;20596;-69
2022/04/23 13:26:21;;;;;;;7.43;6.93;;;37.40;19.60;;;;;;5014457;28;20204;-69